createdAt,value
2022-08-16T00:00:52.152Z,2.60
2022-08-16T00:01:51.061Z,2.80
2022-08-16T00:02:51.822Z,2.80
2022-08-16T00:03:50.963Z,2.50
2022-08-16T00:04:51.235Z,3.00
2022-08-16T00:05:57.688Z,2.70
2022-08-16T00:06:51.915Z,2.90
2022-08-16T00:07:56.478Z,3.20
2022-08-16T00:08:52.606Z,2.70
2022-08-16T00:09:50.885Z,2.60
2022-08-16T00:10:50.874Z,3.10
2022-08-16T00:11:52.676Z,2.70
2022-08-16T00:12:51.087Z,3.00
2022-08-16T00:13:53.726Z,2.90
2022-08-16T00:14:50.828Z,2.80
2022-08-16T00:15:54.181Z,2.70
2022-08-16T00:17:01.177Z,2.70
2022-08-16T00:17:56.908Z,2.60
2022-08-16T00:18:51.789Z,2.60
2022-08-16T00:19:53.620Z,2.70
2022-08-16T00:20:50.859Z,3.00
2022-08-16T00:21:52.236Z,2.80
2022-08-16T00:22:51.834Z,2.60
2022-08-16T00:23:50.741Z,2.90
2022-08-16T00:24:51.326Z,2.80
2022-08-16T00:26:36.329Z,3.00
2022-08-16T00:26:51.722Z,2.90
2022-08-16T00:27:50.721Z,3.20
2022-08-16T00:28:54.723Z,2.90
2022-08-16T00:30:00.744Z,3.10
2022-08-16T00:30:51.662Z,3.30
2022-08-16T00:32:01.093Z,2.80
2022-08-16T00:32:51.664Z,3.30
2022-08-16T00:33:51.637Z,2.90
2022-08-16T00:34:52.716Z,2.80
2022-08-16T00:35:50.605Z,2.80
2022-08-16T00:36:50.597Z,2.80
2022-08-16T00:37:57.668Z,3.00
2022-08-16T00:38:51.587Z,3.00
2022-08-16T00:39:58.533Z,2.80
2022-08-16T00:40:53.650Z,2.90
2022-08-16T00:41:50.547Z,2.70
2022-08-16T00:42:50.548Z,3.00
2022-08-16T00:43:50.535Z,2.90
2022-08-16T00:44:50.509Z,2.70
2022-08-16T00:45:57.893Z,2.60
2022-08-16T00:46:52.920Z,2.50
2022-08-16T00:47:51.510Z,2.90
2022-08-16T00:48:50.470Z,3.00
2022-08-16T00:49:56.575Z,2.90
2022-08-16T00:50:55.381Z,2.60
2022-08-16T00:51:54.836Z,2.60
2022-08-16T00:52:53.590Z,3.10
2022-08-16T00:53:50.423Z,2.80
2022-08-16T00:54:50.402Z,2.80
2022-08-16T00:55:50.402Z,2.90
2022-08-16T00:56:57.177Z,3.00
2022-08-16T00:57:59.781Z,2.80
2022-08-16T00:58:51.365Z,3.00
2022-08-16T00:59:59.079Z,2.60
2022-08-16T01:00:53.952Z,2.60
2022-08-16T01:01:50.338Z,2.90
2022-08-16T01:02:50.593Z,2.90
2022-08-16T01:03:50.329Z,2.70
2022-08-16T01:05:11.191Z,3.40
2022-08-16T01:05:51.288Z,3.00
2022-08-16T01:07:02.077Z,2.80
2022-08-16T01:07:53.361Z,2.70
2022-08-16T01:08:50.255Z,2.90
2022-08-16T01:09:50.249Z,2.70
2022-08-16T01:10:50.229Z,2.90
2022-08-16T01:11:53.775Z,2.80
2022-08-16T01:12:50.201Z,2.70
2022-08-16T01:13:50.197Z,2.70
2022-08-16T01:14:50.179Z,2.90
2022-08-16T01:15:52.486Z,2.90
2022-08-16T01:16:50.179Z,3.00
2022-08-16T01:17:56.189Z,3.00
2022-08-16T01:18:51.145Z,3.20
2022-08-16T01:19:50.146Z,2.70
2022-08-16T01:20:50.126Z,2.60
2022-08-16T01:21:50.141Z,3.00
2022-08-16T01:22:52.200Z,2.90
2022-08-16T01:23:58.673Z,2.60
2022-08-16T01:24:53.956Z,2.90
2022-08-16T01:26:00.303Z,2.50
2022-08-16T01:26:51.095Z,2.60
2022-08-16T01:27:50.045Z,2.60
2022-08-16T01:28:50.036Z,2.80
2022-08-16T01:29:57.628Z,3.00
2022-08-16T01:30:51.017Z,2.60
2022-08-16T01:31:50.017Z,2.80
2022-08-16T01:33:01.313Z,2.60
2022-08-16T01:33:50.988Z,2.80
2022-08-16T01:34:56.768Z,3.00
2022-08-16T01:35:52.599Z,2.60
2022-08-16T01:36:58.158Z,3.20
2022-08-16T01:37:53.067Z,3.10
2022-08-16T01:38:56.774Z,2.90
2022-08-16T01:39:50.991Z,2.70
2022-08-16T01:40:49.901Z,2.50
2022-08-16T01:41:49.902Z,3.30
2022-08-16T01:42:54.035Z,2.80
2022-08-16T01:43:54.125Z,2.70
2022-08-16T01:44:49.864Z,2.60
2022-08-16T01:45:57.622Z,2.80
2022-08-16T01:46:50.861Z,2.40
2022-08-16T01:47:50.993Z,2.80
2022-08-16T01:48:49.823Z,2.60
2022-08-16T01:50:41.940Z,2.50
2022-08-16T01:51:09.579Z,2.60
2022-08-16T01:51:50.796Z,3.50
2022-08-16T01:52:49.834Z,2.60
2022-08-16T01:53:54.678Z,2.60
2022-08-16T01:54:50.747Z,2.80
2022-08-16T01:55:53.969Z,2.50
2022-08-16T01:56:49.754Z,2.80
2022-08-16T01:57:53.718Z,2.60
2022-08-16T01:58:50.697Z,2.70
2022-08-16T01:59:49.689Z,2.60
2022-08-16T02:00:50.678Z,2.80
2022-08-16T02:01:56.279Z,2.50
2022-08-16T02:02:52.291Z,2.60
2022-08-16T02:03:50.699Z,2.60
2022-08-16T02:04:54.230Z,2.60
2022-08-16T02:05:52.147Z,2.50
2022-08-16T02:06:49.631Z,2.60
2022-08-16T02:07:49.601Z,2.40
2022-08-16T02:08:51.201Z,2.70
2022-08-16T02:09:58.710Z,2.90
2022-08-16T02:12:49.672Z,2.70
2022-08-16T02:13:03.095Z,2.70
2022-08-16T02:14:02.018Z,2.30
2022-08-16T02:15:01.166Z,2.80
2022-08-16T02:16:01.239Z,2.80
2022-08-16T02:17:01.177Z,2.90
2022-08-16T02:18:01.549Z,2.50
2022-08-16T02:19:01.121Z,2.60
2022-08-16T02:20:01.112Z,2.60
2022-08-16T02:21:01.097Z,3.10
2022-08-16T02:22:08.767Z,2.90
2022-08-16T02:23:05.788Z,2.60
2022-08-16T02:24:01.073Z,2.70
2022-08-16T02:25:01.062Z,2.60
2022-08-16T02:26:01.052Z,2.80
2022-08-16T02:27:01.091Z,2.90
2022-08-16T02:28:01.039Z,2.70
2022-08-16T02:29:01.011Z,2.50
2022-08-16T02:30:05.216Z,3.10
2022-08-16T02:31:00.983Z,2.60
2022-08-16T02:32:04.469Z,2.40
2022-08-16T02:33:03.175Z,2.50
2022-08-16T02:34:00.955Z,2.60
2022-08-16T02:35:01.945Z,3.10
2022-08-16T02:36:00.940Z,2.50
2022-08-16T02:37:00.962Z,2.90
2022-08-16T02:38:01.751Z,2.40
2022-08-16T02:39:01.899Z,2.60
2022-08-16T02:40:00.915Z,2.50
2022-08-16T02:41:00.878Z,2.80
2022-08-16T02:42:00.889Z,2.50
2022-08-16T02:43:00.867Z,2.60
2022-08-16T02:44:00.857Z,2.70
2022-08-16T02:45:00.838Z,2.70
2022-08-16T02:46:00.829Z,2.60
2022-08-16T02:47:00.832Z,2.60
2022-08-16T02:48:29.459Z,3.00
2022-08-16T02:49:01.995Z,2.80
2022-08-16T02:50:53.871Z,2.60
2022-08-16T02:51:10.988Z,2.70
2022-08-16T02:52:01.761Z,2.80
2022-08-16T02:53:00.742Z,2.90
2022-08-16T02:54:00.740Z,2.70
2022-08-16T02:55:00.724Z,2.80
2022-08-16T02:56:00.737Z,2.70
2022-08-16T02:57:00.713Z,2.40
2022-08-16T02:58:00.696Z,2.80
2022-08-16T02:59:00.684Z,2.70
2022-08-16T03:00:01.268Z,2.40
2022-08-16T03:01:01.704Z,2.30
2022-08-16T03:02:00.723Z,2.60
2022-08-16T03:03:01.636Z,2.70
2022-08-16T03:04:29.170Z,2.50
2022-08-16T03:05:01.827Z,2.70
2022-08-16T03:06:00.608Z,2.50
2022-08-16T03:07:00.606Z,2.70
2022-08-16T03:08:00.592Z,2.60
2022-08-16T03:09:00.569Z,2.80
2022-08-16T03:10:00.885Z,2.50
2022-08-16T03:11:00.553Z,2.60
2022-08-16T03:12:01.036Z,2.70
2022-08-16T03:13:00.802Z,2.50
2022-08-16T03:14:00.533Z,2.60
2022-08-16T03:15:00.499Z,2.40
2022-08-16T03:16:00.500Z,2.70
2022-08-16T03:17:01.937Z,2.60
2022-08-16T03:18:00.471Z,2.50
2022-08-16T03:19:00.452Z,2.70
2022-08-16T03:20:02.888Z,2.60
2022-08-16T03:21:00.442Z,2.50
2022-08-16T03:22:00.433Z,2.40
2022-08-16T03:23:01.971Z,2.40
2022-08-16T03:24:00.401Z,2.60
2022-08-16T03:25:01.055Z,2.30
2022-08-16T03:26:00.384Z,2.80
2022-08-16T03:27:00.392Z,2.40
2022-08-16T03:28:00.356Z,2.60
2022-08-16T03:29:00.356Z,2.60
2022-08-16T03:30:00.338Z,2.60
2022-08-16T03:31:00.756Z,2.50
2022-08-16T03:32:01.272Z,2.60
2022-08-16T03:33:00.309Z,2.60
2022-08-16T03:34:00.297Z,2.70
2022-08-16T03:35:00.293Z,2.70
2022-08-16T03:36:29.808Z,2.60
2022-08-16T03:37:01.280Z,2.60
2022-08-16T03:38:03.142Z,2.40
2022-08-16T03:39:00.239Z,2.60
2022-08-16T03:40:02.632Z,3.00
2022-08-16T03:41:00.240Z,2.50
2022-08-16T03:42:00.488Z,2.40
2022-08-16T03:43:18.677Z,2.50
2022-08-16T03:44:01.183Z,3.10
2022-08-16T03:45:03.836Z,2.50
2022-08-16T03:46:00.182Z,2.70
2022-08-16T03:47:00.153Z,2.80
2022-08-16T03:48:00.170Z,2.40
2022-08-16T03:49:00.123Z,2.40
2022-08-16T03:50:00.122Z,2.50
2022-08-16T03:51:00.579Z,2.50
2022-08-16T03:52:00.097Z,2.70
2022-08-16T03:53:04.244Z,2.50
2022-08-16T03:54:01.672Z,2.90
2022-08-16T03:55:00.070Z,3.30
2022-08-16T03:56:00.075Z,2.70
2022-08-16T03:57:00.059Z,2.40
2022-08-16T03:58:00.028Z,2.60
2022-08-16T03:59:00.029Z,2.70
2022-08-16T04:00:00.053Z,2.40
2022-08-16T04:01:00.096Z,2.60
2022-08-16T04:02:01.089Z,2.30
2022-08-16T04:02:59.980Z,2.40
2022-08-16T04:03:59.971Z,2.50
2022-08-16T04:04:59.970Z,2.30
2022-08-16T04:05:59.978Z,2.70
2022-08-16T04:06:59.941Z,2.40
2022-08-16T04:07:59.921Z,2.40
2022-08-16T04:08:59.923Z,2.60
2022-08-16T04:09:59.908Z,2.40
2022-08-16T04:11:00.932Z,2.40
2022-08-16T04:11:59.881Z,2.60
2022-08-16T04:13:04.585Z,2.50
2022-08-16T04:14:30.838Z,2.30
2022-08-16T04:15:00.862Z,2.30
2022-08-16T04:15:59.853Z,2.30
2022-08-16T04:16:59.838Z,2.40
2022-08-16T04:17:59.818Z,2.40
2022-08-16T04:19:02.244Z,2.60
2022-08-16T04:20:00.005Z,2.50
2022-08-16T04:20:59.786Z,2.60
2022-08-16T04:22:00.792Z,2.50
2022-08-16T04:23:01.256Z,2.90
2022-08-16T04:23:59.755Z,2.50
2022-08-16T04:24:59.764Z,2.80
2022-08-16T04:26:02.032Z,2.30
2022-08-16T04:26:59.729Z,3.00
2022-08-16T04:28:54.436Z,2.60
2022-08-16T04:29:17.187Z,2.70
2022-08-16T04:30:02.959Z,2.70
2022-08-16T04:30:59.679Z,2.50
2022-08-16T04:31:59.660Z,2.40
2022-08-16T04:32:59.661Z,2.40
2022-08-16T04:33:59.666Z,2.60
2022-08-16T04:35:03.431Z,3.00
2022-08-16T04:36:00.633Z,2.50
2022-08-16T04:37:01.477Z,2.50
2022-08-16T04:37:59.605Z,2.40
2022-08-16T04:39:00.571Z,2.40
2022-08-16T04:39:59.630Z,2.60
2022-08-16T04:41:00.580Z,2.40
2022-08-16T04:41:59.549Z,2.80
2022-08-16T04:43:00.542Z,2.70
2022-08-16T04:43:59.523Z,2.20
2022-08-16T04:45:02.041Z,2.30
2022-08-16T04:46:00.271Z,2.70
2022-08-16T04:47:02.999Z,2.40
2022-08-16T04:47:59.496Z,2.40
2022-08-16T04:48:59.477Z,2.30
2022-08-16T04:49:59.487Z,2.30
2022-08-16T04:50:59.468Z,2.50
2022-08-16T04:51:59.452Z,2.70
2022-08-16T04:52:59.438Z,2.30
2022-08-16T04:53:59.448Z,2.50
2022-08-16T04:54:59.431Z,2.70
2022-08-16T04:55:59.399Z,2.40
2022-08-16T04:56:59.395Z,2.30
2022-08-16T04:57:59.382Z,2.50
2022-08-16T04:58:59.371Z,2.70
2022-08-16T04:59:59.386Z,2.40
2022-08-16T05:01:00.369Z,2.10
2022-08-16T05:01:59.644Z,2.30
2022-08-16T05:03:01.474Z,2.30
2022-08-16T05:04:01.704Z,2.50
2022-08-16T05:04:59.324Z,2.40
2022-08-16T05:06:05.294Z,2.50
2022-08-16T05:07:00.282Z,2.30
2022-08-16T05:08:00.069Z,2.60
2022-08-16T05:08:59.261Z,2.20
2022-08-16T05:09:59.255Z,2.30
2022-08-16T05:11:00.244Z,2.30
2022-08-16T05:11:59.216Z,2.40
2022-08-16T05:12:59.216Z,2.50
2022-08-16T05:14:06.863Z,2.90
2022-08-16T05:15:02.659Z,2.40
2022-08-16T05:15:59.176Z,2.60
2022-08-16T05:16:59.177Z,2.50
2022-08-16T05:17:59.742Z,2.30
2022-08-16T05:18:59.148Z,2.20
2022-08-16T05:19:59.150Z,2.20
2022-08-16T05:21:01.769Z,2.50
2022-08-16T05:22:00.110Z,2.30
2022-08-16T05:22:59.109Z,2.30
2022-08-16T05:24:00.339Z,2.50
2022-08-16T05:24:59.145Z,2.40
2022-08-16T05:25:59.071Z,2.30
2022-08-16T05:26:59.062Z,2.50
2022-08-16T05:28:00.056Z,2.20
2022-08-16T05:28:59.050Z,2.40
2022-08-16T05:30:01.299Z,2.40
2022-08-16T05:30:59.014Z,2.30
2022-08-16T05:31:59.006Z,2.40
2022-08-16T05:32:58.995Z,2.20
2022-08-16T05:33:58.974Z,2.30
2022-08-16T05:34:58.987Z,2.20
2022-08-16T05:35:58.955Z,2.40
2022-08-16T05:36:59.953Z,2.30
2022-08-16T05:37:58.955Z,2.30
2022-08-16T05:38:58.926Z,2.20
2022-08-16T05:39:58.965Z,2.40
2022-08-16T05:41:00.431Z,2.30
2022-08-16T05:41:58.899Z,2.50
2022-08-16T05:42:58.891Z,2.70
2022-08-16T05:43:59.297Z,2.50
2022-08-16T05:44:58.882Z,2.40
2022-08-16T05:45:58.851Z,2.50
2022-08-16T05:47:00.253Z,2.50
2022-08-16T05:47:59.565Z,2.50
2022-08-16T05:49:03.687Z,2.50
2022-08-16T05:49:59.801Z,2.40
2022-08-16T05:50:58.800Z,2.40
2022-08-16T05:51:58.790Z,2.30
2022-08-16T05:52:58.772Z,2.50
2022-08-16T05:53:58.772Z,2.30
2022-08-16T05:55:01.576Z,2.50
2022-08-16T05:55:58.743Z,2.30
2022-08-16T05:57:00.046Z,2.50
2022-08-16T05:57:58.722Z,2.60
2022-08-16T05:58:58.733Z,2.70
2022-08-16T05:59:59.804Z,3.10
2022-08-16T06:00:58.685Z,4.40
2022-08-16T06:01:58.786Z,5.90
2022-08-16T06:02:58.659Z,4.30
2022-08-16T06:03:58.662Z,3.90
2022-08-16T06:04:58.636Z,3.70
2022-08-16T06:06:00.641Z,4.40
2022-08-16T06:06:58.620Z,5.00
2022-08-16T06:07:59.340Z,5.70
2022-08-16T06:08:58.609Z,3.00
2022-08-16T06:09:59.896Z,3.40
2022-08-16T06:11:09.662Z,4.60
2022-08-16T06:11:59.557Z,4.80
2022-08-16T06:12:58.550Z,4.30
2022-08-16T06:13:58.634Z,5.10
2022-08-16T06:14:58.778Z,6.00
2022-08-16T06:15:58.510Z,6.00
2022-08-16T06:16:59.031Z,5.00
2022-08-16T06:17:59.504Z,6.10
2022-08-16T06:18:58.493Z,4.70
2022-08-16T06:19:59.471Z,4.60
2022-08-16T06:20:58.464Z,4.70
2022-08-16T06:21:58.452Z,6.40
2022-08-16T06:23:03.232Z,4.60
2022-08-16T06:24:01.134Z,6.70
2022-08-16T06:24:58.417Z,4.50
2022-08-16T06:25:58.586Z,5.80
2022-08-16T06:26:58.570Z,4.40
2022-08-16T06:27:58.408Z,8.00
2022-08-16T06:28:58.377Z,6.20
2022-08-16T06:29:58.356Z,5.90
2022-08-16T06:30:58.339Z,6.80
2022-08-16T06:31:58.337Z,4.40
2022-08-16T06:32:58.316Z,5.10
2022-08-16T06:33:58.327Z,5.90
2022-08-16T06:35:02.940Z,7.00
2022-08-16T06:35:59.727Z,5.50
2022-08-16T06:36:59.539Z,7.60
2022-08-16T06:37:58.279Z,5.30
2022-08-16T06:38:58.278Z,5.60
2022-08-16T06:39:58.281Z,7.10
2022-08-16T06:40:58.231Z,7.00
2022-08-16T06:41:58.231Z,6.60
2022-08-16T06:42:58.629Z,5.30
2022-08-16T06:43:58.273Z,5.60
2022-08-16T06:44:58.190Z,4.70
2022-08-16T06:45:58.181Z,5.40
2022-08-16T06:46:58.164Z,8.00
2022-08-16T06:47:58.177Z,5.40
2022-08-16T06:48:58.161Z,6.30
2022-08-16T06:49:58.142Z,4.60
2022-08-16T06:50:58.129Z,7.30
2022-08-16T06:52:03.060Z,6.60
2022-08-16T06:53:00.300Z,6.10
2022-08-16T06:53:59.112Z,4.50
2022-08-16T06:54:58.076Z,5.10
2022-08-16T06:55:58.075Z,6.70
2022-08-16T06:56:58.056Z,5.30
2022-08-16T06:57:58.055Z,4.50
2022-08-16T06:58:58.054Z,6.30
2022-08-16T06:59:58.258Z,7.80
2022-08-16T07:00:59.524Z,7.20
2022-08-16T07:01:58.735Z,5.50
2022-08-16T07:02:58.198Z,5.70
2022-08-16T07:03:58.014Z,6.40
2022-08-16T07:04:57.967Z,5.30
2022-08-16T07:05:57.978Z,5.40
2022-08-16T07:06:57.950Z,8.20
2022-08-16T07:07:57.940Z,5.70
2022-08-16T07:08:57.954Z,5.80
2022-08-16T07:09:57.925Z,7.40
2022-08-16T07:10:57.908Z,8.10
2022-08-16T07:12:03.738Z,5.90
2022-08-16T07:13:03.836Z,5.10
2022-08-16T07:14:23.753Z,8.00
2022-08-16T07:15:00.904Z,7.10
2022-08-16T07:15:57.865Z,7.60
2022-08-16T07:16:59.072Z,9.00
2022-08-16T07:17:57.844Z,8.60
2022-08-16T07:18:58.703Z,9.40
2022-08-16T07:20:29.170Z,10.60
2022-08-16T07:21:01.790Z,7.80
2022-08-16T07:21:59.797Z,9.10
2022-08-16T07:22:59.156Z,7.90
2022-08-16T07:24:05.466Z,10.00
2022-08-16T07:24:58.756Z,8.00
2022-08-16T07:25:57.747Z,8.00
2022-08-16T07:26:57.736Z,7.80
2022-08-16T07:27:57.746Z,6.80
2022-08-16T07:28:57.719Z,12.20
2022-08-16T07:29:57.699Z,9.50
2022-08-16T07:30:57.693Z,10.80
2022-08-16T07:31:57.681Z,8.80
2022-08-16T07:32:57.680Z,9.90
2022-08-16T07:33:57.682Z,10.00
2022-08-16T07:34:57.649Z,8.60
2022-08-16T07:35:57.642Z,10.20
2022-08-16T07:36:58.317Z,8.80
2022-08-16T07:37:57.624Z,8.50
2022-08-16T07:38:57.614Z,11.60
2022-08-16T07:39:57.686Z,8.80
2022-08-16T07:40:59.493Z,8.60
2022-08-16T07:41:57.583Z,7.60
2022-08-16T07:42:57.555Z,10.50
2022-08-16T07:43:57.558Z,9.30
2022-08-16T07:44:57.525Z,9.20
2022-08-16T07:45:57.527Z,7.90
2022-08-16T07:46:57.506Z,8.70
2022-08-16T07:47:57.517Z,10.30
2022-08-16T07:49:02.640Z,7.50
2022-08-16T07:49:58.554Z,12.80
2022-08-16T07:50:59.546Z,7.90
2022-08-16T07:51:57.468Z,10.70
2022-08-16T07:52:57.447Z,10.30
2022-08-16T07:54:04.143Z,9.50
2022-08-16T07:54:58.426Z,8.20
2022-08-16T07:55:57.424Z,9.50
2022-08-16T07:56:57.407Z,10.30
2022-08-16T07:58:00.770Z,13.90
2022-08-16T07:58:58.483Z,7.80
2022-08-16T07:59:57.559Z,10.40
2022-08-16T08:00:57.389Z,6.90
2022-08-16T08:01:57.354Z,9.60
2022-08-16T08:02:57.751Z,7.30
2022-08-16T08:03:57.343Z,9.50
2022-08-16T08:04:57.699Z,8.90
2022-08-16T08:05:57.302Z,8.80
2022-08-16T08:06:57.293Z,8.00
2022-08-16T08:07:57.583Z,10.50
2022-08-16T08:08:59.360Z,9.30
2022-08-16T08:09:57.265Z,7.60
2022-08-16T08:10:57.266Z,9.50
2022-08-16T08:12:01.220Z,9.30
2022-08-16T08:12:58.510Z,7.20
2022-08-16T08:13:57.238Z,8.30
2022-08-16T08:14:57.206Z,10.00
2022-08-16T08:15:57.197Z,12.80
2022-08-16T08:16:57.185Z,9.90
2022-08-16T08:18:28.859Z,6.90
2022-08-16T08:19:00.602Z,8.10
2022-08-16T08:19:57.157Z,8.50
2022-08-16T08:20:58.885Z,8.20
2022-08-16T08:21:59.371Z,9.70
2022-08-16T08:23:00.695Z,8.90
2022-08-16T08:23:57.129Z,7.60
2022-08-16T08:24:58.930Z,8.90
2022-08-16T08:25:57.090Z,6.70
2022-08-16T08:26:57.072Z,7.90
2022-08-16T08:27:57.536Z,7.70
2022-08-16T08:29:00.975Z,9.40
2022-08-16T08:30:48.982Z,9.20
2022-08-16T08:31:01.561Z,7.40
2022-08-16T08:31:58.026Z,9.50
2022-08-16T08:33:00.370Z,9.20
2022-08-16T08:33:58.023Z,10.30
2022-08-16T08:35:03.393Z,9.00
2022-08-16T08:36:01.109Z,9.30
2022-08-16T08:36:56.968Z,7.80
2022-08-16T08:37:56.977Z,8.60
2022-08-16T08:38:56.965Z,8.40
2022-08-16T08:39:56.969Z,8.60
2022-08-16T08:40:56.927Z,10.60
2022-08-16T08:41:56.925Z,7.60
2022-08-16T08:43:00.101Z,7.60
2022-08-16T08:43:56.964Z,7.90
2022-08-16T08:44:56.889Z,7.60
2022-08-16T08:45:56.878Z,8.00
2022-08-16T08:47:00.753Z,7.50
2022-08-16T08:47:58.557Z,7.50
2022-08-16T08:49:00.037Z,7.50
2022-08-16T08:49:58.100Z,7.30
2022-08-16T08:50:56.821Z,8.30
2022-08-16T08:51:56.812Z,7.50
2022-08-16T08:52:56.804Z,7.70
2022-08-16T08:53:57.742Z,7.30
2022-08-16T08:54:56.772Z,9.90
2022-08-16T08:55:58.891Z,8.60
2022-08-16T08:56:56.752Z,7.60
2022-08-16T08:57:56.754Z,8.30
2022-08-16T08:58:58.239Z,7.70
2022-08-16T08:59:56.724Z,8.40
2022-08-16T09:00:56.705Z,6.90
2022-08-16T09:01:58.602Z,7.00
2022-08-16T09:02:57.068Z,5.90
2022-08-16T09:03:56.736Z,6.70
2022-08-16T09:04:57.244Z,8.00
2022-08-16T09:05:56.657Z,7.50
2022-08-16T09:06:58.470Z,6.40
2022-08-16T09:08:01.995Z,7.00
2022-08-16T09:08:57.687Z,7.80
2022-08-16T09:10:06.144Z,5.60
2022-08-16T09:10:59.205Z,6.60
2022-08-16T09:12:06.541Z,6.70
2022-08-16T09:12:57.569Z,5.60
2022-08-16T09:13:56.578Z,7.00
2022-08-16T09:14:56.551Z,7.50
2022-08-16T09:15:56.548Z,7.20
2022-08-16T09:17:01.110Z,8.00
2022-08-16T09:17:57.531Z,7.90
2022-08-16T09:19:00.803Z,7.70
2022-08-16T09:19:59.401Z,6.80
2022-08-16T09:20:59.626Z,8.50
2022-08-16T09:21:56.482Z,8.70
2022-08-16T09:22:56.462Z,6.40
2022-08-16T09:23:56.473Z,7.90
2022-08-16T09:25:09.589Z,5.40
2022-08-16T09:25:57.435Z,7.60
2022-08-16T09:26:56.423Z,5.80
2022-08-16T09:27:56.846Z,6.20
2022-08-16T09:29:16.675Z,7.60
2022-08-16T09:29:59.738Z,6.00
2022-08-16T09:30:56.397Z,7.00
2022-08-16T09:31:56.367Z,6.40
2022-08-16T09:32:56.367Z,6.00
2022-08-16T09:33:56.367Z,6.80
2022-08-16T09:34:58.450Z,5.80
2022-08-16T09:35:56.329Z,9.20
2022-08-16T09:36:56.309Z,6.90
2022-08-16T09:38:00.558Z,6.70
2022-08-16T09:38:59.817Z,7.20
2022-08-16T09:39:56.282Z,6.80
2022-08-16T09:40:56.299Z,7.10
2022-08-16T09:41:56.270Z,6.20
2022-08-16T09:42:58.971Z,6.30
2022-08-16T09:43:59.829Z,7.30
2022-08-16T09:45:10.643Z,6.10
2022-08-16T09:45:57.218Z,5.50
2022-08-16T09:46:57.874Z,7.00
2022-08-16T09:47:58.013Z,5.40
2022-08-16T09:48:56.551Z,5.50
2022-08-16T09:49:56.179Z,7.00
2022-08-16T09:50:56.310Z,6.50
2022-08-16T09:51:57.197Z,6.40
2022-08-16T09:52:56.134Z,5.60
2022-08-16T09:53:56.158Z,8.20
2022-08-16T09:54:56.105Z,5.60
2022-08-16T09:55:56.853Z,5.90
2022-08-16T09:56:56.087Z,6.00
2022-08-16T09:57:56.093Z,7.00
2022-08-16T09:59:04.961Z,5.80
2022-08-16T09:59:57.069Z,6.30
2022-08-16T10:00:56.047Z,6.30
2022-08-16T10:01:56.038Z,6.20
2022-08-16T10:02:56.225Z,5.80
2022-08-16T10:04:02.014Z,5.20
2022-08-16T10:04:57.250Z,7.00
2022-08-16T10:05:55.997Z,6.10
2022-08-16T10:06:56.029Z,4.30
2022-08-16T10:07:56.741Z,8.00
2022-08-16T10:09:05.330Z,6.50
2022-08-16T10:09:56.950Z,6.10
2022-08-16T10:10:55.939Z,6.10
2022-08-16T10:11:55.933Z,5.50
2022-08-16T10:12:56.982Z,7.40
2022-08-16T10:13:55.923Z,6.40
2022-08-16T10:14:56.680Z,5.90
2022-08-16T10:15:56.672Z,6.80
2022-08-16T10:16:59.991Z,6.00
2022-08-16T10:18:00.670Z,4.60
2022-08-16T10:19:07.194Z,4.50
2022-08-16T10:19:57.625Z,6.50
2022-08-16T10:20:55.841Z,5.40
2022-08-16T10:21:56.274Z,6.00
2022-08-16T10:23:05.515Z,6.60
2022-08-16T10:23:56.832Z,4.90
2022-08-16T10:24:59.939Z,5.30
2022-08-16T10:27:18.443Z,5.00
2022-08-16T10:27:19.577Z,8.20
2022-08-16T10:28:26.140Z,5.90
2022-08-16T10:28:56.769Z,4.40
2022-08-16T10:30:01.329Z,4.60
2022-08-16T10:30:58.809Z,6.90
2022-08-16T10:31:55.718Z,6.90
2022-08-16T10:32:55.710Z,5.40
2022-08-16T10:33:55.848Z,5.30
2022-08-16T10:34:55.700Z,5.10
2022-08-16T10:35:57.644Z,5.80
2022-08-16T10:36:55.662Z,5.80
2022-08-16T10:37:55.660Z,6.30
2022-08-16T10:38:56.163Z,6.40
2022-08-16T10:39:55.830Z,6.70
2022-08-16T10:40:55.623Z,6.40
2022-08-16T10:41:55.612Z,5.80
2022-08-16T10:42:55.601Z,6.00
2022-08-16T10:43:56.342Z,6.20
2022-08-16T10:44:56.265Z,6.10
2022-08-16T10:45:57.204Z,6.00
2022-08-16T10:46:55.555Z,6.00
2022-08-16T10:48:00.641Z,3.70
2022-08-16T10:48:56.558Z,5.10
2022-08-16T10:49:55.517Z,5.70
2022-08-16T10:50:55.516Z,5.00
2022-08-16T10:52:02.503Z,5.40
2022-08-16T10:52:59.092Z,5.70
2022-08-16T10:53:55.487Z,5.90
2022-08-16T10:54:59.183Z,4.80
2022-08-16T10:55:57.501Z,7.40
2022-08-16T10:56:57.112Z,6.50
2022-08-16T10:57:56.890Z,7.10
2022-08-16T10:58:55.617Z,6.00
2022-08-16T10:59:58.478Z,4.60
2022-08-16T11:00:57.566Z,4.90
2022-08-16T11:03:41.828Z,5.60
2022-08-16T11:03:57.469Z,6.50
2022-08-16T11:05:11.010Z,5.50
2022-08-16T11:05:59.849Z,8.70
2022-08-16T11:07:56.669Z,4.50
2022-08-16T11:10:19.750Z,6.60
2022-08-16T11:11:06.696Z,5.80
2022-08-16T11:12:13.913Z,5.20
2022-08-16T11:12:56.524Z,5.50
2022-08-16T11:13:59.743Z,6.10
2022-08-16T11:15:12.141Z,7.30
2022-08-16T11:15:57.576Z,6.60
2022-08-16T11:17:10.682Z,6.20
2022-08-16T11:19:04.362Z,5.20
2022-08-16T11:20:56.188Z,7.30
2022-08-16T11:22:56.174Z,7.90
2022-08-16T11:23:58.085Z,4.30
2022-08-16T11:26:07.821Z,5.60
2022-08-16T11:27:56.128Z,5.30
2022-08-16T11:29:56.873Z,4.40
2022-08-16T11:30:55.080Z,5.00
2022-08-16T11:31:55.139Z,7.80
2022-08-16T11:32:55.843Z,5.90
2022-08-16T11:33:55.525Z,5.60
2022-08-16T11:35:15.050Z,5.70
2022-08-16T11:37:01.122Z,6.10
2022-08-16T11:38:46.600Z,5.60
2022-08-16T11:38:57.129Z,5.10
2022-08-16T11:39:59.804Z,4.40
2022-08-16T11:40:54.974Z,5.90
2022-08-16T11:41:54.958Z,6.30
2022-08-16T11:42:54.962Z,6.10
2022-08-16T11:43:54.955Z,5.40
2022-08-16T11:44:56.975Z,5.60
2022-08-16T11:45:54.930Z,5.70
2022-08-16T11:46:54.909Z,4.50
2022-08-16T11:47:55.720Z,5.70
2022-08-16T11:48:54.899Z,5.40
2022-08-16T11:49:54.890Z,5.70
2022-08-16T11:50:54.880Z,5.70
2022-08-16T11:51:55.630Z,8.00
2022-08-16T11:52:54.951Z,5.90
2022-08-16T11:53:55.571Z,6.80
2022-08-16T11:54:57.085Z,4.20
2022-08-16T11:55:55.812Z,6.10
2022-08-16T11:56:57.399Z,4.40
2022-08-16T11:57:57.351Z,5.40
2022-08-16T11:58:56.963Z,5.40
2022-08-16T11:59:54.942Z,3.40
2022-08-16T12:00:54.850Z,3.70
2022-08-16T12:01:59.230Z,4.10
2022-08-16T12:02:55.504Z,4.00
2022-08-16T12:03:54.873Z,4.20
2022-08-16T12:04:54.717Z,5.10
2022-08-16T12:05:54.695Z,4.00
2022-08-16T12:06:54.904Z,4.40
2022-08-16T12:07:55.446Z,4.60
2022-08-16T12:08:54.686Z,5.10
2022-08-16T12:09:54.655Z,5.00
2022-08-16T12:10:54.647Z,5.30
2022-08-16T12:11:54.638Z,5.90
2022-08-16T12:12:54.625Z,6.00
2022-08-16T12:13:54.618Z,6.40
2022-08-16T12:14:59.874Z,4.30
2022-08-16T12:15:55.593Z,4.60
2022-08-16T12:16:55.430Z,4.10
2022-08-16T12:17:54.580Z,3.90
2022-08-16T12:18:54.562Z,4.60
2022-08-16T12:19:55.319Z,5.90
2022-08-16T12:20:55.078Z,7.40
2022-08-16T12:21:58.198Z,4.50
2022-08-16T12:22:55.531Z,5.10
2022-08-16T12:23:54.499Z,3.80
2022-08-16T12:24:54.494Z,6.70
2022-08-16T12:25:54.474Z,4.40
2022-08-16T12:26:54.472Z,5.10
2022-08-16T12:27:54.484Z,4.00
2022-08-16T12:28:56.339Z,5.00
2022-08-16T12:29:54.449Z,4.80
2022-08-16T12:30:54.447Z,4.80
2022-08-16T12:32:01.186Z,3.80
2022-08-16T12:32:56.446Z,3.70
2022-08-16T12:33:57.434Z,5.20
2022-08-16T12:34:54.386Z,5.20
2022-08-16T12:35:54.379Z,3.80
2022-08-16T12:36:54.418Z,5.70
2022-08-16T12:37:56.540Z,4.80
2022-08-16T12:38:54.340Z,4.80
2022-08-16T12:39:54.345Z,4.10
2022-08-16T12:40:57.103Z,4.80
2022-08-16T12:41:54.299Z,4.40
2022-08-16T12:42:54.783Z,3.80
2022-08-16T12:43:57.263Z,4.30
2022-08-16T12:44:55.281Z,4.60
2022-08-16T12:45:54.261Z,4.90
2022-08-16T12:46:54.254Z,6.80
2022-08-16T12:48:09.977Z,4.30
2022-08-16T12:48:55.232Z,5.10
2022-08-16T12:49:54.212Z,4.20
2022-08-16T12:50:54.212Z,4.80
2022-08-16T12:51:58.452Z,6.70
2022-08-16T12:52:55.485Z,3.50
2022-08-16T12:53:54.172Z,4.00
2022-08-16T12:54:55.067Z,4.40
2022-08-16T12:55:54.154Z,3.90
2022-08-16T12:56:54.146Z,4.30
2022-08-16T12:57:58.466Z,3.90
2022-08-16T12:58:55.908Z,3.90
2022-08-16T12:59:54.106Z,4.60
2022-08-16T13:00:54.167Z,4.30
2022-08-16T13:01:58.313Z,4.00
2022-08-16T13:02:54.103Z,3.50
2022-08-16T13:04:08.292Z,3.80
2022-08-16T13:04:55.062Z,3.30
2022-08-16T13:05:56.303Z,3.70
2022-08-16T13:06:54.092Z,3.50
2022-08-16T13:07:54.462Z,4.20
2022-08-16T13:08:54.011Z,4.50
2022-08-16T13:09:54.316Z,4.00
2022-08-16T13:10:53.991Z,4.90
2022-08-16T13:11:58.090Z,5.40
2022-08-16T13:12:54.981Z,3.10
2022-08-16T13:13:55.005Z,5.90
2022-08-16T13:14:53.950Z,3.80
2022-08-16T13:15:56.838Z,3.10
2022-08-16T13:16:54.934Z,4.30
2022-08-16T13:17:53.923Z,4.50
2022-08-16T13:18:54.509Z,4.30
2022-08-16T13:20:10.896Z,5.30
2022-08-16T13:20:54.890Z,5.70
2022-08-16T13:21:53.874Z,3.50
2022-08-16T13:22:53.875Z,4.10
2022-08-16T13:23:55.558Z,5.20
2022-08-16T13:24:53.835Z,2.90
2022-08-16T13:25:54.882Z,3.10
2022-08-16T13:26:53.816Z,3.10
2022-08-16T13:28:02.308Z,3.90
2022-08-16T13:28:54.810Z,3.60